createdAt,value
2024-04-05T02:30:51.020Z,16.80
2024-04-05T02:33:17.975Z,14.70
2024-04-05T02:35:44.620Z,14.90
2024-04-05T02:38:11.644Z,15.30
2024-04-05T02:40:38.338Z,14.80
2024-04-05T02:43:05.522Z,15.20
2024-04-05T02:45:32.170Z,14.40
2024-04-05T02:47:59.754Z,14.30
2024-04-05T02:50:26.422Z,14.70
2024-04-05T02:52:53.349Z,14.10
2024-04-05T02:55:22.911Z,13.70
2024-04-05T02:57:49.781Z,13.50
2024-04-05T03:00:16.682Z,14.10
2024-04-05T03:02:43.641Z,13.90
2024-04-05T03:05:12.926Z,13.90
2024-04-05T03:07:39.864Z,14.50
2024-04-05T03:10:07.389Z,14.90
2024-04-05T03:12:34.621Z,15.20
2024-04-05T03:15:01.939Z,15.20
2024-04-05T03:17:35.010Z,14.50
2024-04-05T03:20:01.704Z,14.30
2024-04-05T03:22:29.340Z,14.00
2024-04-05T03:24:56.358Z,13.90
2024-04-05T03:27:23.239Z,13.90
2024-04-05T03:29:51.718Z,13.80
2024-04-05T03:32:18.632Z,14.20
2024-04-05T03:34:47.309Z,14.50
2024-04-05T03:37:17.030Z,14.80
2024-04-05T03:39:44.672Z,14.60
2024-04-05T03:42:11.641Z,14.40
2024-04-05T03:44:38.307Z,14.30
2024-04-05T03:47:05.388Z,14.00
2024-04-05T03:49:32.039Z,14.30
2024-04-05T03:51:58.923Z,14.20
2024-04-05T03:54:25.865Z,14.60
2024-04-05T03:56:54.573Z,14.60
2024-04-05T03:59:21.693Z,15.10
2024-04-05T04:01:51.457Z,14.50
2024-04-05T04:04:18.463Z,14.30
2024-04-05T04:06:45.165Z,14.10
2024-04-05T04:09:12.278Z,13.90
2024-04-05T04:11:39.332Z,14.20
2024-04-05T04:14:06.927Z,14.00
2024-04-05T04:16:33.580Z,13.90
2024-04-05T04:19:00.514Z,13.80
2024-04-05T04:21:27.150Z,14.40
2024-04-05T04:23:54.638Z,14.20
2024-04-05T04:26:21.333Z,13.90
2024-04-05T04:28:49.699Z,13.80
2024-04-05T04:31:20.837Z,14.10
2024-04-05T04:33:47.894Z,13.80
2024-04-05T04:36:15.009Z,14.50
2024-04-05T04:38:42.416Z,14.30
2024-04-05T04:41:09.116Z,14.60
2024-04-05T04:43:36.659Z,14.40
2024-04-05T04:46:03.656Z,14.70
2024-04-05T04:48:31.465Z,14.80
2024-04-05T04:50:58.177Z,14.50
2024-04-05T04:53:27.860Z,14.20
2024-04-05T04:55:54.526Z,14.30
2024-04-05T04:58:23.568Z,14.90
2024-04-05T05:00:50.460Z,15.40
2024-04-05T05:03:17.444Z,15.30
2024-04-05T05:05:44.779Z,15.50
2024-04-05T05:08:11.856Z,15.00
2024-04-05T05:10:39.412Z,15.10
2024-04-05T05:13:09.527Z,14.70
2024-04-05T05:15:36.854Z,14.60
2024-04-05T05:18:04.881Z,14.40
2024-04-05T05:20:34.632Z,14.90
2024-04-05T05:23:02.430Z,15.10
2024-04-05T05:25:29.150Z,15.10
2024-04-05T05:27:56.145Z,14.80
2024-04-05T05:30:22.813Z,14.80
2024-04-05T05:32:57.148Z,14.80
2024-04-05T05:35:24.020Z,14.30
2024-04-05T05:37:51.032Z,14.90
2024-04-05T05:40:18.342Z,15.20
2024-04-05T05:42:45.253Z,15.20
2024-04-05T05:45:11.927Z,15.00
2024-04-05T05:47:44.790Z,15.10
2024-04-05T05:50:11.980Z,14.70
2024-04-05T05:52:38.934Z,14.30
2024-04-05T05:55:06.792Z,14.20
2024-04-05T05:57:34.328Z,14.30
2024-04-05T06:00:01.464Z,13.60
2024-04-05T06:02:28.401Z,13.60
2024-04-05T06:04:55.061Z,13.90
2024-04-05T06:07:22.981Z,14.00
2024-04-05T06:09:52.410Z,13.70
2024-04-05T06:12:19.324Z,14.10
2024-04-05T06:14:54.625Z,13.80
2024-04-05T06:17:22.059Z,13.80
2024-04-05T06:19:53.964Z,14.10
2024-04-05T06:22:21.557Z,14.20
2024-04-05T06:24:51.747Z,14.40
2024-04-05T06:27:19.525Z,14.40
2024-04-05T06:29:49.420Z,14.80
2024-04-05T06:32:16.465Z,14.60
2024-04-05T06:34:43.968Z,14.80
2024-04-05T06:37:13.974Z,15.10
2024-04-05T06:39:43.255Z,14.90
2024-04-05T06:42:11.311Z,15.30
2024-04-05T06:44:39.732Z,15.40
2024-04-05T06:47:08.507Z,15.10
2024-04-05T06:49:37.642Z,15.30
2024-04-05T06:52:08.809Z,15.20
2024-04-05T06:54:40.136Z,15.10
2024-04-05T06:57:07.072Z,16.00
2024-04-05T06:59:36.145Z,15.00
2024-04-05T07:02:03.940Z,15.00
2024-04-05T07:04:31.700Z,14.90
2024-04-05T07:07:01.434Z,15.40
2024-04-05T07:09:30.039Z,15.20
2024-04-05T07:12:05.009Z,15.20
2024-04-05T07:14:32.205Z,14.90
2024-04-05T07:16:58.922Z,15.30
2024-04-05T07:19:25.972Z,15.20
2024-04-05T07:21:59.389Z,15.00
2024-04-05T07:24:26.351Z,15.10
2024-04-05T07:26:53.047Z,15.20
2024-04-05T07:29:20.033Z,15.00
2024-04-05T07:31:48.840Z,15.30
2024-04-05T07:34:16.437Z,15.30
2024-04-05T07:36:44.459Z,15.10
2024-04-05T07:39:12.818Z,15.10
2024-04-05T07:41:39.542Z,15.40
2024-04-05T07:44:07.250Z,15.30
2024-04-05T07:46:35.732Z,15.60
2024-04-05T07:49:02.670Z,15.40
2024-04-05T07:51:29.356Z,15.40
2024-04-05T07:53:56.264Z,15.40
2024-04-05T07:56:27.670Z,15.60
2024-04-05T07:58:54.672Z,15.50
2024-04-05T08:01:22.341Z,15.70
2024-04-05T08:03:49.262Z,15.50
2024-04-05T08:06:16.008Z,15.50
2024-04-05T08:08:45.245Z,15.50
2024-04-05T08:11:11.883Z,15.50
2024-04-05T08:13:39.436Z,15.40
2024-04-05T08:16:07.034Z,15.10
2024-04-05T08:18:34.408Z,15.10
2024-04-05T08:21:05.648Z,15.20
2024-04-05T08:23:32.624Z,15.20
2024-04-05T08:26:02.204Z,15.10
2024-04-05T08:28:29.226Z,15.10
2024-04-05T08:30:56.658Z,15.30
2024-04-05T08:33:23.705Z,15.20
2024-04-05T08:35:53.721Z,15.10
2024-04-05T08:38:20.717Z,15.00
2024-04-05T08:40:48.254Z,14.90
2024-04-05T08:43:17.240Z,15.10
2024-04-05T08:45:52.010Z,15.00
2024-04-05T08:48:21.764Z,15.00
2024-04-05T08:50:48.709Z,15.20
2024-04-05T08:53:17.830Z,15.20
2024-04-05T08:55:45.807Z,15.10
2024-04-05T08:58:13.904Z,15.00
2024-04-05T09:00:40.886Z,15.10
2024-04-05T09:03:12.060Z,15.10
2024-04-05T09:05:39.459Z,15.30
2024-04-05T09:08:08.966Z,15.50
2024-04-05T09:10:36.186Z,15.70
2024-04-05T09:13:05.074Z,15.60
2024-04-05T09:15:32.920Z,15.50
2024-04-05T09:17:59.924Z,15.40
2024-04-05T09:20:30.396Z,15.70
2024-04-05T09:23:02.559Z,15.50
2024-04-05T09:25:32.936Z,15.70
2024-04-05T09:28:07.886Z,15.90
2024-04-05T09:30:35.808Z,16.00
2024-04-05T09:33:02.923Z,16.00
2024-04-05T09:35:30.932Z,16.00
2024-04-05T09:37:58.647Z,15.90
2024-04-05T09:40:26.153Z,16.00
2024-04-05T09:42:54.479Z,16.10
2024-04-05T09:45:22.439Z,16.10
2024-04-05T09:47:50.572Z,15.90
2024-04-05T09:50:17.772Z,15.50
2024-04-05T09:52:50.983Z,15.30
2024-04-05T09:55:19.599Z,15.20
2024-04-05T09:57:49.684Z,15.50
2024-04-05T10:00:21.588Z,15.40
2024-04-05T10:02:52.305Z,15.40
2024-04-05T10:05:26.240Z,15.50
2024-04-05T10:07:54.362Z,15.60
2024-04-05T10:10:33.092Z,15.70
2024-04-05T10:13:12.602Z,15.60
2024-04-05T10:15:40.067Z,15.60
2024-04-05T10:18:07.221Z,15.80
2024-04-05T10:20:35.014Z,15.70
2024-04-05T10:23:04.126Z,15.80
2024-04-05T10:25:30.933Z,15.90
2024-04-05T10:27:57.908Z,15.90
2024-04-05T10:30:25.213Z,15.80
2024-04-05T10:33:01.273Z,15.90
2024-04-05T10:35:33.293Z,16.00
2024-04-05T10:38:14.105Z,16.20
2024-04-05T10:40:56.143Z,16.30
2024-04-05T10:43:23.089Z,16.40
2024-04-05T10:45:54.185Z,16.30
2024-04-05T10:48:22.320Z,16.30
2024-04-05T10:50:49.547Z,16.40
2024-04-05T10:53:17.241Z,16.50
2024-04-05T10:55:45.127Z,16.30
2024-04-05T10:58:13.322Z,16.40
2024-04-05T11:00:40.841Z,16.40
2024-04-05T11:03:11.259Z,16.40
2024-04-05T11:05:38.250Z,16.50
2024-04-05T11:08:06.638Z,16.40
2024-04-05T11:10:38.295Z,16.30
2024-04-05T11:13:17.350Z,16.60
2024-04-05T11:20:48.448Z,16.70
2024-04-05T11:25:52.397Z,17.30
2024-04-05T11:28:26.971Z,17.80
2024-04-05T11:30:54.629Z,17.60
2024-04-05T11:33:22.217Z,17.50
2024-04-05T11:35:49.186Z,17.30
2024-04-05T11:38:16.371Z,17.10
2024-04-05T11:40:43.044Z,17.00
2024-04-05T11:43:10.011Z,17.00
2024-04-05T11:45:36.731Z,17.00
2024-04-05T11:48:08.017Z,16.90
2024-04-05T11:50:43.058Z,17.00
2024-04-05T11:53:09.971Z,16.90
2024-04-05T11:55:36.662Z,17.10
2024-04-05T11:58:04.986Z,17.40
2024-04-05T12:00:31.687Z,17.60
2024-04-05T12:02:58.760Z,17.60
2024-04-05T12:05:25.434Z,17.70
2024-04-05T12:07:53.056Z,17.70
2024-04-05T12:10:19.937Z,17.60
2024-04-05T12:12:46.876Z,17.50
2024-04-05T12:15:15.962Z,17.50
2024-04-05T12:17:42.938Z,17.50
2024-04-05T12:20:12.545Z,17.60
2024-04-05T12:22:39.719Z,17.70
2024-04-05T12:25:08.118Z,17.60
2024-04-05T12:27:35.142Z,17.70
2024-04-05T12:30:01.763Z,17.70
2024-04-05T12:32:31.708Z,17.80
2024-04-05T12:35:00.003Z,17.90
2024-04-05T12:37:28.091Z,17.90
2024-04-05T12:42:23.440Z,18.20
2024-04-05T12:44:50.745Z,18.50
2024-04-05T12:47:17.676Z,18.40
2024-04-05T12:49:44.348Z,18.50
2024-04-05T12:52:11.348Z,18.40
2024-04-05T12:54:38.022Z,18.20
2024-04-05T12:57:05.770Z,18.10
2024-04-05T12:59:33.239Z,18.10
2024-04-05T13:02:00.598Z,18.10
2024-04-05T13:04:30.059Z,18.20
2024-04-05T13:07:00.806Z,18.30
2024-04-05T13:09:27.471Z,18.30
2024-04-05T13:11:54.396Z,18.10
2024-04-05T13:14:24.944Z,18.20
2024-04-05T13:16:55.540Z,18.20
2024-04-05T13:19:22.334Z,18.10
2024-04-05T13:21:49.390Z,18.10
2024-04-05T13:24:16.069Z,18.00
2024-04-05T13:26:43.021Z,17.90
2024-04-05T13:29:09.720Z,17.80
2024-04-05T13:31:37.353Z,17.80
2024-04-05T13:34:07.060Z,17.80
2024-04-05T13:36:34.432Z,17.80
2024-04-05T13:39:01.159Z,17.60
2024-04-05T13:41:31.183Z,17.60
2024-04-05T13:44:04.020Z,17.30
2024-04-05T13:46:31.222Z,16.90
2024-04-05T13:49:06.946Z,16.30
2024-04-05T13:51:35.464Z,15.90
2024-04-05T13:54:03.893Z,15.70
2024-04-05T13:56:33.815Z,15.70
2024-04-05T13:59:00.501Z,15.70
2024-04-05T14:01:27.479Z,15.70
2024-04-05T14:03:54.148Z,15.80
2024-04-05T14:06:21.101Z,15.80
2024-04-05T14:08:49.890Z,16.00
2024-04-05T14:11:17.264Z,15.90
2024-04-05T14:13:46.816Z,16.00
2024-04-05T14:16:15.050Z,16.20
2024-04-05T14:18:48.144Z,16.50
2024-04-05T14:21:14.743Z,16.20
2024-04-05T14:23:41.671Z,16.30
2024-04-05T14:26:09.013Z,16.20
2024-04-05T14:28:35.973Z,16.10
2024-04-05T14:31:14.717Z,16.30
2024-04-05T14:33:58.281Z,16.40
2024-04-05T14:36:26.470Z,16.80
2024-04-05T14:38:54.412Z,17.00
2024-04-05T14:41:21.768Z,17.00
2024-04-05T14:43:49.247Z,17.10
2024-04-05T14:46:15.953Z,17.30
2024-04-05T14:48:43.339Z,17.80
2024-04-05T14:51:10.095Z,17.60
2024-04-05T14:53:38.095Z,17.50
2024-04-05T14:56:06.906Z,17.30
2024-04-05T14:58:34.851Z,17.80
2024-04-05T15:03:31.272Z,17.90
2024-04-05T15:06:03.550Z,18.00
2024-04-05T15:08:31.801Z,18.00
2024-04-05T15:10:58.517Z,18.00
2024-04-05T15:13:29.522Z,18.10
2024-04-05T15:15:57.068Z,18.10
2024-04-05T15:18:25.053Z,18.10
2024-04-05T15:20:53.311Z,18.20
2024-04-05T15:23:24.428Z,18.20
2024-04-05T15:25:52.474Z,18.30
2024-04-05T15:28:19.787Z,18.30
2024-04-05T15:30:52.575Z,18.40
2024-04-05T15:33:20.516Z,18.40
2024-04-05T15:35:56.070Z,18.00
2024-04-05T15:38:25.476Z,18.00
2024-04-05T15:41:04.152Z,18.10
2024-04-05T15:43:32.130Z,18.00
2024-04-05T15:46:00.895Z,18.10
2024-04-05T15:48:28.708Z,18.10
2024-04-05T15:51:01.172Z,18.10
2024-04-05T15:53:30.416Z,18.20
2024-04-05T15:56:00.977Z,18.20
2024-04-05T15:58:29.372Z,18.20
2024-04-05T16:00:56.079Z,18.10
2024-04-05T16:03:23.045Z,18.40
2024-04-05T18:51:35.637Z,19.20
2024-04-05T18:54:06.330Z,19.20
2024-04-05T18:56:33.998Z,18.90
2024-04-05T18:59:01.376Z,19.10
2024-04-05T19:01:30.954Z,19.20
2024-04-05T19:04:01.787Z,19.00
2024-04-05T19:06:30.168Z,19.00
2024-04-05T19:09:00.310Z,18.80
2024-04-05T19:11:27.675Z,19.00
2024-04-05T19:13:55.836Z,19.10
2024-04-05T19:16:22.722Z,19.10
2024-04-05T19:18:50.384Z,19.10
2024-04-05T19:21:17.068Z,19.10
2024-04-05T19:23:44.127Z,19.20
2024-04-05T19:26:10.963Z,18.70
2024-04-05T19:28:38.558Z,18.60
2024-04-05T19:31:06.738Z,18.90
2024-04-05T19:33:36.455Z,19.00
2024-04-05T19:36:04.871Z,19.10
2024-04-05T19:38:35.793Z,18.90
2024-04-05T19:41:05.269Z,18.80
2024-04-05T19:43:32.224Z,18.90
2024-04-05T19:45:59.594Z,18.80
2024-04-05T19:48:26.530Z,18.80
2024-04-05T19:50:53.345Z,18.70
2024-04-05T19:53:20.266Z,18.90
2024-04-05T19:55:49.124Z,18.50
2024-04-05T19:58:23.115Z,18.30
2024-04-05T20:00:55.990Z,18.60
2024-04-05T20:03:27.602Z,18.70
2024-04-05T20:05:57.956Z,18.70
2024-04-05T20:08:25.783Z,18.30
2024-04-05T20:10:53.030Z,18.60
2024-04-05T20:13:20.329Z,18.70
2024-04-05T20:15:46.959Z,18.40
2024-04-05T20:18:13.958Z,18.70
2024-04-05T20:20:41.598Z,18.90
2024-04-05T20:23:08.222Z,19.10
2024-04-05T20:25:35.222Z,18.80
2024-04-05T20:28:02.752Z,18.60
2024-04-05T20:30:47.754Z,18.50
2024-04-05T20:33:14.703Z,18.50
2024-04-05T20:35:42.246Z,18.60
2024-04-05T20:38:09.150Z,18.70
2024-04-05T20:40:36.063Z,18.80
2024-04-05T20:43:03.325Z,18.70
2024-04-05T20:45:29.943Z,18.70
2024-04-05T20:47:56.915Z,18.20
2024-04-05T20:50:24.426Z,17.80
2024-04-05T20:52:51.996Z,18.00
2024-04-05T20:55:18.640Z,17.80
2024-04-05T20:57:48.420Z,18.10
2024-04-05T21:00:15.921Z,18.20
2024-04-05T21:02:42.815Z,18.10
2024-04-05T21:05:09.430Z,17.70
2024-04-05T21:07:36.336Z,17.90
2024-04-05T21:10:04.335Z,18.40
2024-04-05T21:12:31.271Z,18.10
2024-04-05T21:14:57.898Z,18.30
2024-04-05T21:17:27.620Z,18.60
2024-04-05T21:20:04.418Z,18.60
2024-04-05T21:22:34.523Z,18.80
2024-04-05T21:25:01.165Z,18.50
2024-04-05T21:27:29.167Z,18.50
2024-04-05T21:29:57.729Z,17.80
2024-04-05T21:32:24.712Z,18.00
2024-04-05T21:34:52.438Z,17.70
2024-04-05T21:37:20.254Z,17.70
2024-04-05T21:39:46.920Z,17.60
2024-04-05T21:42:13.815Z,17.50
2024-04-05T21:44:41.120Z,18.10
2024-04-05T21:47:11.140Z,18.10
2024-04-05T21:52:08.747Z,18.00
2024-04-05T21:54:35.424Z,17.50
2024-04-05T21:57:03.496Z,17.10
2024-04-05T21:59:30.613Z,17.10
2024-04-05T22:01:58.162Z,17.20
2024-04-05T22:04:25.030Z,16.80
2024-04-05T22:06:54.725Z,17.20
2024-04-05T22:09:21.606Z,16.80
2024-04-05T22:11:48.796Z,17.20
2024-04-05T22:14:20.594Z,17.20
2024-04-05T22:16:51.912Z,17.10
2024-04-05T22:19:19.211Z,17.10
2024-04-05T22:21:48.914Z,16.90
2024-04-05T22:24:15.556Z,17.10
2024-04-05T22:26:51.617Z,17.10
2024-04-05T22:29:18.315Z,17.10
2024-04-05T22:31:45.266Z,17.00
2024-04-05T22:34:11.898Z,17.00
2024-04-05T22:36:39.531Z,16.80
2024-04-05T22:39:08.897Z,17.00
2024-04-05T22:41:37.493Z,16.90
2024-04-05T22:44:04.495Z,16.60
2024-04-05T22:46:31.889Z,16.70
2024-04-05T22:48:58.519Z,16.60
2024-04-05T22:51:25.508Z,17.10
2024-04-05T22:53:52.792Z,17.20
2024-04-05T22:56:19.751Z,17.00
2024-04-05T22:58:46.488Z,17.10
2024-04-05T23:01:16.582Z,17.30
2024-04-05T23:03:44.168Z,17.50
2024-04-05T23:06:11.127Z,18.10
2024-04-05T23:08:37.736Z,17.50
2024-04-05T23:11:05.521Z,17.60
2024-04-05T23:13:32.145Z,17.60
2024-04-05T23:15:59.065Z,17.50
2024-04-05T23:18:25.680Z,17.60
2024-04-05T23:20:52.597Z,17.80
2024-04-05T23:23:19.316Z,17.30
2024-04-05T23:25:48.379Z,17.60
2024-04-05T23:28:15.709Z,17.50
2024-04-05T23:30:42.643Z,17.50
2024-04-05T23:33:12.700Z,17.60
2024-04-05T23:35:39.644Z,17.50
2024-04-05T23:38:06.289Z,17.50
2024-04-05T23:40:33.221Z,17.50
2024-04-05T23:42:59.866Z,17.20
2024-04-05T23:45:27.411Z,17.10
2024-04-05T23:47:54.055Z,17.60
2024-04-05T23:50:20.939Z,17.40
2024-04-05T23:52:47.601Z,17.40
2024-04-05T23:55:14.616Z,17.40
2024-04-05T23:57:41.291Z,18.10
